Time;durP1;ratioP1;P1;durP2;ratioP2;P2;SDS_P1;SDS_P2;PMS_P1;PMS_P2;Temp;Humidity;BMP_temperature;BMP_pressure;BME280_temperature;BME280_humidity;BME280_pressure;Samples;Min_cycle;Max_cycle;Signal;HPM_P1;HPM_P2
2021/03/26 00:01:05;;;;;;;16.40;8.60;;;11.10;64.90;;;10.23;55.00;98908.66;5077123;28;20463;-79
2021/03/26 00:03:37;;;;;;;17.02;8.38;;;11.10;64.70;;;10.26;55.08;98909.06;5009473;28;20593;-79
2021/03/26 00:06:08;;;;;;;14.20;7.50;;;11.10;64.80;;;10.21;55.35;98908.88;5094769;28;20495;-79
2021/03/26 00:08:34;;;;;;;21.17;8.80;;;11.10;65.00;;;10.26;55.18;98908.25;5008064;28;20482;-79
2021/03/26 00:11:03;;;;;;;16.13;8.10;;;11.10;65.10;;;10.27;55.25;98912.50;5073663;28;20448;-78
2021/03/26 00:13:29;;;;;;;17.45;8.35;;;11.10;65.00;;;10.19;55.51;98910.09;5004765;28;20425;-79
2021/03/26 00:15:55;;;;;;;19.83;8.43;;;11.10;65.20;;;10.26;55.50;98910.88;5010781;28;20491;-79
2021/03/26 00:18:22;;;;;;;20.07;8.23;;;11.00;65.50;;;10.17;55.90;98906.81;5009431;28;20425;-79
2021/03/26 00:20:48;;;;;;;18.25;8.40;;;11.00;65.90;;;10.01;56.63;98914.22;5075862;28;20434;-79
2021/03/26 00:23:15;;;;;;;16.10;9.02;;;10.90;66.30;;;9.99;56.50;98908.34;5009321;28;20418;-79
2021/03/26 00:25:42;;;;;;;15.77;8.07;;;10.90;66.40;;;10.02;56.86;98907.09;5008617;28;20433;-79
2021/03/26 00:28:08;;;;;;;18.00;8.88;;;10.80;66.70;;;9.98;56.22;98900.59;5072858;28;20521;-78
2021/03/26 00:30:34;;;;;;;13.80;8.27;;;10.80;66.30;;;9.99;56.13;98902.25;5000092;28;20435;-78
2021/03/26 00:33:02;;;;;;;14.65;8.10;;;10.90;66.30;;;10.15;55.53;98912.31;4999899;28;20695;-77
2021/03/26 00:35:30;;;;;;;17.40;8.60;;;11.00;65.90;;;10.16;55.58;98906.00;4997226;28;20688;-77
2021/03/26 00:37:56;;;;;;;16.60;8.05;;;11.00;65.50;;;10.14;55.53;98904.63;4999164;28;20422;-79
2021/03/26 00:40:25;;;;;;;14.85;8.90;;;11.00;65.50;;;10.10;55.71;98902.38;5084886;28;20840;-77
2021/03/26 00:42:52;;;;;;;19.27;8.73;;;11.00;65.60;;;9.93;56.27;98901.22;4996037;28;20410;-77
2021/03/26 00:45:25;;;;;;;15.82;8.60;;;10.90;66.00;;;9.91;56.61;98894.53;4999798;28;20425;-78
2021/03/26 00:47:52;;;;;;;19.48;8.43;;;10.80;66.50;;;9.86;56.92;98897.78;5000362;28;20476;-78
2021/03/26 00:50:22;;;;;;;15.73;8.67;;;10.70;66.80;;;9.93;56.79;98892.47;4998782;28;20536;-78
2021/03/26 00:52:49;;;;;;;19.17;9.10;;;10.80;66.80;;;9.87;56.69;98893.31;4997363;28;20475;-78
2021/03/26 00:55:16;;;;;;;16.35;8.38;;;10.80;66.80;;;9.87;56.63;98890.66;4997016;28;20509;-78
2021/03/26 00:57:43;;;;;;;17.92;8.10;;;10.70;66.70;;;9.86;56.85;98894.31;4997619;28;20413;-78
2021/03/26 01:00:17;;;;;;;18.73;8.90;;;10.70;66.80;;;9.83;56.65;98894.78;4998526;28;20885;-78
2021/03/26 01:02:43;;;;;;;19.02;8.45;;;10.70;66.80;;;9.81;56.58;98889.69;4998418;28;20452;-78
2021/03/26 01:05:12;;;;;;;16.40;9.15;;;10.70;66.60;;;9.70;56.85;98891.13;5083726;28;20426;-77
2021/03/26 01:07:38;;;;;;;16.48;8.77;;;10.70;66.70;;;9.59;57.15;98897.06;5069015;28;20681;-79
2021/03/26 01:10:10;;;;;;;17.73;8.90;;;10.50;66.90;;;9.47;57.54;98888.13;5000273;28;20441;-79
2021/03/26 01:12:36;;;;;;;18.90;9.02;;;10.40;67.50;;;9.38;57.61;98894.69;5086360;28;20479;-79
2021/03/26 01:15:11;;;;;;;17.08;9.10;;;10.30;67.80;;;9.33;57.79;98894.47;4999198;28;20479;-77
2021/03/26 01:17:38;;;;;;;16.10;8.75;;;10.30;67.90;;;9.32;57.69;98895.50;5084263;28;20788;-77
2021/03/26 01:20:09;;;;;;;16.40;8.35;;;10.30;68.30;;;9.29;57.79;98894.09;5069460;28;20442;-79
2021/03/26 01:22:35;;;;;;;16.52;8.82;;;10.20;68.20;;;9.29;57.91;98891.44;5068130;28;20426;-79
2021/03/26 01:25:05;;;;;;;16.23;9.07;;;10.20;68.20;;;9.23;57.90;98891.44;5068573;28;20472;-79
2021/03/26 01:27:31;;;;;;;16.13;8.65;;;10.20;68.20;;;9.22;57.85;98890.63;5069974;28;20499;-78
2021/03/26 01:29:57;;;;;;;16.55;8.93;;;10.10;68.30;;;9.20;57.84;98883.94;5068118;28;20437;-79
2021/03/26 01:32:24;;;;;;;14.45;8.38;;;10.10;68.10;;;9.15;58.04;98883.75;5000132;28;20415;-79
2021/03/26 01:34:50;;;;;;;16.60;8.07;;;10.20;68.20;;;9.27;58.28;98890.00;5068273;28;20445;-79
2021/03/26 01:37:16;;;;;;;16.70;9.00;;;10.10;68.60;;;9.21;58.25;98882.91;5000972;28;20420;-79
2021/03/26 01:39:42;;;;;;;14.75;8.32;;;10.10;68.50;;;9.18;57.87;98885.97;5002929;28;20815;-78
2021/03/26 01:42:23;;;;;;;17.33;9.10;;;10.10;68.00;;;9.30;57.51;98884.34;5001592;28;20418;-78
2021/03/26 01:44:50;;;;;;;24.00;8.95;;;10.10;68.20;;;9.30;57.64;98885.16;5003445;28;20446;-78
2021/03/26 01:47:16;;;;;;;14.60;9.27;;;10.20;68.20;;;9.30;57.46;98873.75;5070428;28;20489;-78
2021/03/26 01:49:43;;;;;;;15.32;9.02;;;10.20;67.70;;;9.08;58.41;98869.72;5001705;28;20438;-77
2021/03/26 01:52:10;;;;;;;18.25;9.18;;;10.10;68.20;;;8.99;59.39;98865.66;5069401;28;20430;-79
2021/03/26 01:54:36;;;;;;;16.17;9.07;;;10.00;69.50;;;8.96;59.63;98879.25;5003379;28;20422;-78
2021/03/26 01:57:04;;;;;;;20.23;9.18;;;10.00;69.90;;;9.13;58.98;98878.66;5081867;28;20725;-78
2021/03/26 01:59:30;;;;;;;19.60;9.48;;;10.00;69.70;;;9.28;58.33;98871.31;5082977;28;20426;-76
2021/03/26 02:02:00;;;;;;;19.63;9.00;;;10.20;69.10;;;9.18;58.79;98873.56;5083258;28;20411;-78
2021/03/26 02:04:31;;;;;;;19.63;9.35;;;10.10;69.00;;;9.28;58.61;98865.22;5082273;28;20520;-78
2021/03/26 02:06:58;;;;;;;19.83;9.38;;;10.20;69.20;;;9.26;58.65;98861.97;5082518;28;20460;-77
2021/03/26 02:09:31;;;;;;;15.77;9.30;;;10.10;69.20;;;9.17;58.89;98864.00;5082005;28;20412;-78
2021/03/26 02:12:01;;;;;;;21.02;8.93;;;10.10;69.60;;;9.16;58.86;98854.47;5083031;28;20447;-77
2021/03/26 02:14:33;;;;;;;16.40;8.43;;;10.10;69.50;;;9.16;59.00;98861.59;5097484;28;20475;-78
2021/03/26 02:17:01;;;;;;;14.00;8.48;;;10.00;69.50;;;9.14;59.18;98855.69;5081576;28;20472;-78
2021/03/26 02:19:33;;;;;;;16.15;8.55;;;10.00;69.70;;;9.15;59.30;98866.06;5080577;28;20411;-78
2021/03/26 02:22:02;;;;;;;17.67;8.95;;;10.10;69.90;;;9.26;58.72;98877.81;5081628;28;20411;-78
2021/03/26 02:24:30;;;;;;;16.30;9.10;;;10.10;69.50;;;9.25;58.88;98874.34;5081000;28;20424;-78
2021/03/26 02:27:08;;;;;;;13.40;8.70;;;10.20;69.50;;;9.45;58.18;98869.06;5081555;28;20499;-78
2021/03/26 02:29:34;;;;;;;16.23;8.82;;;10.30;69.00;;;9.55;57.71;98864.13;5079798;28;20754;-78
2021/03/26 02:32:06;;;;;;;16.38;8.38;;;10.40;68.40;;;9.22;58.46;98873.97;5079907;28;20457;-78
2021/03/26 02:34:33;;;;;;;16.67;8.95;;;10.20;68.80;;;9.06;59.07;98869.94;5080671;28;20515;-78
2021/03/26 02:37:03;;;;;;;20.45;9.50;;;10.00;69.70;;;8.95;59.51;98865.25;5087083;28;20842;-78
2021/03/26 02:39:39;;;;;;;19.77;8.80;;;9.90;69.90;;;8.86;59.80;98877.06;5088253;28;20416;-79
2021/03/26 02:42:17;;;;;;;17.30;9.13;;;9.80;70.50;;;8.77;60.20;98875.63;5088821;28;20466;-78
2021/03/26 02:44:55;;;;;;;17.03;8.47;;;9.70;71.00;;;8.72;60.61;98870.16;5089312;28;20449;-78
2021/03/26 02:47:34;;;;;;;22.20;9.23;;;9.60;71.20;;;8.72;60.70;98870.94;5087036;28;20411;-78
2021/03/26 02:50:09;;;;;;;13.25;8.90;;;9.60;72.30;;;8.72;60.69;98863.00;5085727;28;20412;-78
2021/03/26 02:52:45;;;;;;;16.63;8.83;;;9.70;71.60;;;8.70;60.85;98864.25;5086757;28;20468;-78
2021/03/26 02:55:22;;;;;;;22.58;9.48;;;9.70;72.50;;;8.86;60.46;98851.47;5102440;28;20558;-78
2021/03/26 02:57:56;;;;;;;15.35;8.85;;;9.70;71.50;;;8.90;60.34;98849.22;5086263;28;20468;-78
2021/03/26 03:00:30;;;;;;;20.20;9.93;;;9.80;71.20;;;8.81;60.48;98853.88;5085077;28;20476;-78
2021/03/26 03:02:59;;;;;;;21.17;9.88;;;9.80;71.20;;;8.74;60.71;98861.00;5086910;28;20418;-77
2021/03/26 03:05:30;;;;;;;25.73;9.68;;;9.80;71.50;;;8.65;61.24;98859.56;5088403;28;20412;-78
2021/03/26 03:08:05;;;;;;;22.70;9.63;;;9.70;71.90;;;8.62;61.21;98859.16;5087220;28;20497;-77
2021/03/26 03:10:38;;;;;;;23.48;10.10;;;9.60;72.10;;;8.65;61.26;98861.38;5087626;28;20480;-77
2021/03/26 03:13:12;;;;;;;22.10;9.90;;;9.60;72.20;;;8.87;60.75;98868.13;5085879;28;20443;-77
2021/03/26 03:15:44;;;;;;;20.65;9.65;;;9.70;72.30;;;8.89;60.49;98856.31;5101217;28;20431;-77
2021/03/26 03:18:18;;;;;;;20.70;10.07;;;9.80;71.70;;;8.80;60.89;98857.53;5085280;28;20488;-78
2021/03/26 03:20:53;;;;;;;20.85;11.10;;;9.70;71.90;;;8.77;60.99;98854.50;5084310;28;20472;-78
2021/03/26 03:23:26;;;;;;;22.60;10.30;;;9.70;72.10;;;8.72;60.81;98855.09;5079537;28;20476;-77
2021/03/26 03:25:59;;;;;;;21.52;10.13;;;9.70;72.10;;;8.59;61.32;98846.38;5098396;28;20435;-78
2021/03/26 03:28:33;;;;;;;20.10;9.85;;;9.60;72.20;;;8.69;61.16;98849.44;5100380;28;20416;-78
2021/03/26 03:31:14;;;;;;;16.70;9.70;;;9.60;72.40;;;8.79;60.54;98849.84;5082600;28;20478;-77
2021/03/26 03:33:51;;;;;;;16.02;9.43;;;9.60;71.90;;;8.67;60.65;98851.44;5079558;28;20423;-78
2021/03/26 03:36:23;;;;;;;22.48;9.82;;;9.60;71.90;;;8.63;60.97;98850.25;5080276;28;20399;-77
2021/03/26 03:38:55;;;;;;;18.05;9.57;;;9.50;72.30;;;8.61;61.19;98849.63;5080858;28;20677;-77
2021/03/26 03:41:33;;;;;;;16.90;9.52;;;9.50;72.60;;;8.51;61.65;98848.19;5079904;28;20442;-77
2021/03/26 03:44:11;;;;;;;16.30;9.85;;;9.50;72.70;;;8.35;61.73;98845.13;5096032;28;20404;-77
2021/03/26 03:46:49;;;;;;;19.52;10.15;;;9.30;72.90;;;8.15;62.46;98837.97;5096411;28;20412;-77
2021/03/26 03:49:29;;;;;;;29.80;10.23;;;9.20;73.60;;;8.12;62.67;98834.91;5080017;28;20426;-77
2021/03/26 03:52:05;;;;;;;16.67;9.40;;;9.10;74.00;;;8.07;63.09;98837.31;5079598;28;20415;-77
2021/03/26 03:54:39;;;;;;;16.98;9.73;;;9.00;74.30;;;8.12;62.87;98837.53;5078802;28;20411;-77
2021/03/26 03:57:10;;;;;;;19.17;10.63;;;9.00;74.60;;;8.15;62.89;98842.41;4998477;28;20419;-77
2021/03/26 03:59:44;;;;;;;16.58;10.27;;;9.00;74.50;;;8.15;62.67;98845.06;4998428;28;20598;-79
2021/03/26 04:02:15;;;;;;;17.55;10.18;;;9.10;74.30;;;8.20;62.72;98845.25;5065911;28;20419;-78
2021/03/26 04:04:48;;;;;;;17.15;9.85;;;9.10;74.20;;;8.32;62.47;98846.34;5067510;28;20426;-76
2021/03/26 04:07:21;;;;;;;19.45;10.63;;;9.20;74.20;;;8.24;62.57;98837.78;5083791;28;20423;-78
2021/03/26 04:09:53;;;;;;;19.88;10.07;;;9.10;74.20;;;8.21;62.96;98841.63;5000106;28;20701;-78
2021/03/26 04:12:26;;;;;;;26.05;11.40;;;9.10;74.30;;;8.23;62.82;98839.59;5070878;28;20461;-78
2021/03/26 04:15:09;;;;;;;22.13;11.00;;;9.10;74.50;;;8.27;62.74;98845.31;5093407;28;20450;-78
2021/03/26 04:17:43;;;;;;;18.98;10.63;;;9.10;74.50;;;8.23;62.83;98839.59;5009227;28;20418;-78
2021/03/26 04:20:20;;;;;;;22.73;11.50;;;9.10;74.40;;;8.23;62.75;98842.25;5073793;28;20422;-77
2021/03/26 04:22:51;;;;;;;21.85;11.88;;;9.20;74.40;;;8.08;63.05;98844.22;5007129;28;20817;-78
2021/03/26 04:25:24;;;;;;;28.52;11.60;;;9.10;74.20;;;7.99;63.38;98850.69;5001789;28;20438;-78
2021/03/26 04:28:02;;;;;;;25.83;12.48;;;9.00;74.60;;;7.85;63.90;98841.94;5006658;28;20426;-78
2021/03/26 04:30:33;;;;;;;22.30;12.55;;;8.90;75.00;;;7.87;64.04;98845.19;5069259;28;20422;-78
2021/03/26 04:33:00;;;;;;;21.67;12.18;;;8.90;75.40;;;8.00;63.42;98844.41;5065571;28;20427;-78
2021/03/26 04:35:27;;;;;;;22.25;11.75;;;9.00;75.20;;;7.85;63.71;98835.84;4999561;28;20498;-78
2021/03/26 04:38:07;;;;;;;23.40;12.40;;;8.90;74.90;;;7.84;63.92;98832.38;5082523;28;20433;-78
2021/03/26 04:40:39;;;;;;;25.38;11.82;;;8.90;75.30;;;8.03;63.52;98841.38;5068732;28;20431;-76
2021/03/26 04:43:19;;;;;;;23.55;12.57;;;8.90;75.40;;;8.26;62.87;98835.75;4999453;28;20494;-78
2021/03/26 04:45:53;;;;;;;25.35;12.48;;;9.10;74.90;;;8.29;62.69;98830.88;5001526;28;20422;-78
2021/03/26 04:48:26;;;;;;;19.13;12.27;;;9.20;74.40;;;8.36;62.48;98839.66;5086220;28;20419;-79
2021/03/26 04:51:02;;;;;;;27.85;11.65;;;9.20;74.20;;;8.28;63.10;98839.00;5003205;28;20445;-79
2021/03/26 04:53:38;;;;;;;26.75;12.95;;;9.30;74.40;;;8.14;63.47;98836.34;5002754;28;20411;-79
2021/03/26 04:56:12;;;;;;;26.45;13.63;;;9.10;74.80;;;8.14;63.49;98835.50;5005529;28;20506;-78
2021/03/26 04:58:42;;;;;;;30.05;13.38;;;9.10;75.10;;;7.88;63.72;98833.63;5004431;28;20450;-78
2021/03/26 05:01:14;;;;;;;23.27;13.68;;;9.00;75.30;;;7.69;64.54;98823.81;5005058;28;20825;-79
2021/03/26 05:03:45;;;;;;;27.30;13.13;;;8.80;75.80;;;7.68;64.75;98824.81;5005308;28;20410;-78
2021/03/26 05:06:21;;;;;;;26.85;14.40;;;8.70;76.10;;;7.64;64.98;98824.44;5091550;28;20430;-77
2021/03/26 05:08:54;;;;;;;24.10;13.98;;;8.70;76.50;;;7.57;65.23;98828.03;5005228;28;20465;-79
2021/03/26 05:11:23;;;;;;;28.92;14.52;;;8.60;77.40;;;7.50;65.53;98820.13;4997355;28;20494;-79
2021/03/26 05:13:56;;;;;;;29.63;15.40;;;8.60;77.10;;;7.47;65.52;98819.69;5080894;28;20427;-79
2021/03/26 05:16:29;;;;;;;35.10;15.98;;;8.60;77.30;;;7.39;65.95;98818.84;5071940;28;20452;-78
2021/03/26 05:19:03;;;;;;;38.63;16.48;;;8.50;77.50;;;7.37;66.02;98809.50;5006398;28;20704;-79
2021/03/26 05:21:38;;;;;;;32.05;15.52;;;8.50;77.70;;;7.41;65.90;98823.91;5086150;28;20415;-78
2021/03/26 05:24:15;;;;;;;42.20;16.70;;;8.40;77.60;;;7.44;66.04;98825.34;5006452;28;20414;-78
2021/03/26 05:26:41;;;;;;;42.73;15.63;;;8.50;77.80;;;7.57;65.51;98820.94;5091598;28;20427;-79
2021/03/26 05:29:09;;;;;;;25.58;14.93;;;8.60;77.40;;;7.61;65.14;98819.53;5065152;28;20438;-80
2021/03/26 05:31:47;;;;;;;25.60;15.10;;;8.70;77.80;;;7.58;65.44;98822.59;5067820;28;20488;-79
2021/03/26 05:34:22;;;;;;;27.90;15.75;;;8.60;77.20;;;7.61;65.25;98822.16;5000273;28;20414;-79
2021/03/26 05:37:05;;;;;;;28.48;15.60;;;8.60;77.00;;;7.48;65.63;98816.03;5090140;28;20800;-79
2021/03/26 05:39:36;;;;;;;33.65;16.38;;;8.50;77.10;;;7.39;65.76;98818.03;5011422;28;20512;-79
2021/03/26 05:42:27;;;;;;;32.45;15.98;;;8.50;77.50;;;7.37;66.01;98823.47;5011777;28;20492;-81
2021/03/26 05:45:33;;;;;;;33.10;15.95;;;8.40;77.80;;;7.35;66.08;98822.88;5011307;28;20403;-80
2021/03/26 05:48:36;;;;;;;34.03;16.13;;;8.40;77.90;;;7.47;65.98;98824.94;5010145;28;20403;-79
2021/03/26 05:51:27;;;;;;;38.42;16.35;;;8.50;77.90;;;7.59;65.76;98831.31;5080763;28;20434;-79
2021/03/26 05:54:05;;;;;;;36.75;15.13;;;8.60;77.70;;;7.87;64.67;98823.28;5010910;28;20422;-79
2021/03/26 05:56:39;;;;;;;34.95;14.52;;;8.70;77.20;;;8.09;63.74;98828.22;5007875;28;20480;-78
2021/03/26 05:59:24;;;;;;;29.40;14.05;;;9.00;76.20;;;8.18;63.45;98828.84;5076828;28;20414;-78
2021/03/26 06:02:51;;;;;;;25.48;13.32;;;9.10;75.40;;;8.23;62.91;98825.59;5008746;28;20485;-78
2021/03/26 06:05:57;;;;;;;24.23;13.20;;;9.10;75.10;;;8.08;63.56;98834.50;5010638;28;20426;-78
2021/03/26 06:09:20;;;;;;;34.97;14.95;;;9.10;74.80;;;8.01;64.10;98838.94;5007591;28;20437;-78
2021/03/26 06:12:42;;;;;;;28.55;13.68;;;9.00;75.40;;;8.08;63.59;98833.69;5028467;28;20476;-78
2021/03/26 06:15:53;;;;;;;27.70;13.45;;;9.10;75.30;;;8.11;63.18;98830.66;5009990;28;20448;-78
2021/03/26 06:18:47;;;;;;;30.00;13.05;;;9.10;74.80;;;8.13;63.38;98841.81;5007094;28;20774;-78
2021/03/26 06:21:30;;;;;;;27.15;12.68;;;9.20;74.80;;;8.16;63.14;98838.78;5077524;28;20411;-80
2021/03/26 06:24:43;;;;;;;27.80;12.48;;;9.20;74.60;;;8.27;62.63;98843.44;5006242;28;20413;-79
2021/03/26 06:27:26;;;;;;;25.42;12.80;;;9.20;74.50;;;8.27;62.92;98840.81;5072703;28;20790;-79
2021/03/26 06:30:13;;;;;;;23.45;13.00;;;9.30;74.20;;;8.50;62.26;98845.75;5090616;28;20439;-79
2021/03/26 06:33:22;;;;;;;28.25;12.77;;;9.40;74.00;;;8.55;61.92;98845.97;5071263;28;20461;-79
2021/03/26 06:36:29;;;;;;;22.63;12.77;;;9.60;73.40;;;8.73;61.39;98845.34;5005307;28;20490;-79
2021/03/26 06:39:50;;;;;;;26.25;12.48;;;9.70;73.00;;;9.02;60.51;98839.63;5002235;28;20450;-77
2021/03/26 06:43:05;;;;;;;29.13;13.02;;;9.90;72.20;;;9.04;59.76;98840.25;4928866;28;20428;-78
2021/03/26 06:45:55;;;;;;;23.42;12.77;;;10.00;71.10;;;9.09;59.38;98848.41;4947351;29;20507;-78
2021/03/26 06:48:35;;;;;;;28.37;13.17;;;10.00;70.80;;;9.23;58.88;98843.91;5067919;28;20612;-78
2021/03/26 06:51:24;;;;;;;39.70;14.57;;;10.10;70.30;;;9.36;58.71;98846.50;5074504;28;20596;-78
2021/03/26 06:54:10;;;;;;;25.55;12.82;;;10.20;70.00;;;9.71;57.52;98839.88;5078977;28;20429;-78
2021/03/26 06:57:07;;;;;;;29.23;13.25;;;10.50;68.70;;;9.61;57.62;98830.78;5010742;28;20477;-78
2021/03/26 07:00:15;;;;;;;31.23;13.40;;;10.50;68.50;;;9.42;58.10;98826.34;5009976;28;20449;-78
2021/03/26 07:03:14;;;;;;;35.60;13.40;;;10.50;68.60;;;9.30;58.27;98828.84;5009812;28;20488;-78
2021/03/26 07:06:17;;;;;;;35.22;14.15;;;10.30;69.00;;;9.40;58.41;98837.13;5009111;28;20464;-78
2021/03/26 07:09:11;;;;;;;34.83;12.95;;;10.30;69.30;;;9.48;58.50;98834.25;5008390;28;20427;-78
2021/03/26 07:12:06;;;;;;;34.25;13.90;;;10.40;69.00;;;9.77;57.44;98827.66;5007153;28;20424;-78
2021/03/26 07:14:49;;;;;;;27.13;13.45;;;10.60;68.50;;;9.90;56.84;98827.59;5004582;28;20442;-78
2021/03/26 07:18:06;;;;;;;24.67;13.23;;;10.70;68.00;;;10.12;58.11;98825.44;4999700;28;20877;-78
2021/03/26 07:21:13;;;;;;;38.67;13.60;;;10.80;67.80;;;10.14;56.41;98830.53;5021078;23;20749;-78
2021/03/26 07:24:20;;;;;;;28.38;13.93;;;11.00;67.20;;;10.16;56.58;98826.63;5014632;28;20422;-77
2021/03/26 07:27:00;;;;;;;33.65;13.43;;;11.00;67.10;;;10.35;55.84;98831.03;5019992;28;20474;-78
2021/03/26 07:30:32;;;;;;;24.67;12.80;;;11.20;66.20;;;10.51;55.43;98824.41;5003606;28;20563;-78
2021/03/26 07:33:23;;;;;;;43.28;13.45;;;11.30;65.70;;;10.02;56.93;98820.59;4944186;28;20526;-78
2021/03/26 07:36:23;;;;;;;40.00;13.88;;;11.00;66.40;;;9.91;57.35;98823.94;4936908;28;20492;-78
2021/03/26 07:39:28;;;;;;;30.55;12.80;;;10.90;67.60;;;9.85;57.62;98827.41;5016997;28;20409;-78
2021/03/26 07:42:41;;;;;;;32.47;13.73;;;10.80;67.80;;;9.88;57.47;98821.69;5017887;28;20403;-77
2021/03/26 07:45:51;;;;;;;29.98;12.93;;;10.90;67.80;;;9.99;57.48;98817.59;5012180;28;20868;-77
2021/03/26 07:48:49;;;;;;;30.55;12.55;;;10.90;67.70;;;10.36;56.52;98821.25;5011754;28;20456;-77
2021/03/26 07:51:27;;;;;;;26.63;13.15;;;11.20;67.40;;;11.02;54.90;98816.22;5012512;28;20454;-77
2021/03/26 07:54:25;;;;;;;37.42;13.82;;;11.70;66.00;;;11.23;53.41;98815.78;5011819;28;20442;-77
2021/03/26 07:57:27;;;;;;;31.95;14.75;;;12.20;63.60;;;11.20;53.61;98805.63;5010516;28;20422;-77
2021/03/26 08:00:34;;;;;;;27.95;12.23;;;12.20;62.70;;;11.39;53.06;98797.69;4995001;28;20435;-77
2021/03/26 08:03:20;;;;;;;31.00;15.20;;;12.30;62.60;;;11.68;52.27;98807.53;4994028;28;20417;-77
2021/03/26 08:06:16;;;;;;;30.85;12.68;;;12.50;62.20;;;12.00;51.49;98806.34;5012144;28;20670;-77
2021/03/26 08:09:06;;;;;;;24.83;12.18;;;12.80;61.00;;;11.78;51.23;98807.03;5012399;28;20405;-77
2021/03/26 08:12:06;;;;;;;21.15;11.85;;;12.80;59.70;;;11.63;52.09;98810.88;5014663;28;20424;-78
2021/03/26 08:15:23;;;;;;;24.13;11.45;;;12.60;60.70;;;11.62;52.27;98809.25;4963391;28;20429;-79
2021/03/26 08:18:07;;;;;;;23.80;12.40;;;12.50;61.30;;;11.39;52.73;98803.81;5022259;28;20414;-80
2021/03/26 08:20:42;;;;;;;28.33;12.52;;;12.40;61.50;;;11.41;52.73;98799.09;5020813;28;20421;-79
2021/03/26 08:23:29;;;;;;;26.63;11.75;;;12.30;61.80;;;11.32;52.81;98807.56;5025926;28;20428;-79
2021/03/26 08:26:11;;;;;;;23.48;12.18;;;12.20;61.80;;;11.32;53.10;98802.25;5023011;28;20449;-78
2021/03/26 08:29:16;;;;;;;30.97;14.20;;;12.20;62.10;;;11.16;53.48;98795.69;5024774;28;20501;-79
2021/03/26 08:32:46;;;;;;;30.13;14.50;;;12.20;62.40;;;11.06;54.09;98801.50;5019491;28;20478;-78
2021/03/26 08:35:51;;;;;;;28.10;13.57;;;12.00;63.20;;;11.19;53.61;98801.38;4922117;28;20537;-78
2021/03/26 08:38:35;;;;;;;25.80;12.32;;;12.10;63.00;;;11.23;52.98;98807.03;4943699;29;20415;-79
2021/03/26 08:41:08;;;;;;;27.50;13.15;;;12.10;62.20;;;11.20;52.57;98797.66;5013274;28;20464;-78
2021/03/26 08:43:37;;;;;;;30.33;13.48;;;12.10;61.80;;;11.27;52.70;98797.63;4998669;28;20920;-78
2021/03/26 08:46:13;;;;;;;29.52;13.55;;;12.20;61.90;;;11.35;52.55;98794.66;5019538;28;20409;-78
2021/03/26 08:48:48;;;;;;;27.53;13.70;;;12.20;61.80;;;11.43;52.28;98791.72;5023103;28;20450;-78
2021/03/26 08:52:13;;;;;;;32.47;14.40;;;12.30;61.40;;;11.50;52.46;98799.59;5026597;28;20452;-79
2021/03/26 08:55:08;;;;;;;29.02;15.40;;;12.40;61.60;;;11.47;52.38;98794.75;5015939;28;20542;-77
2021/03/26 08:57:52;;;;;;;41.60;20.73;;;12.40;61.40;;;11.45;52.33;98794.16;5015423;28;20714;-78
2021/03/26 09:00:32;;;;;;;29.20;13.50;;;12.40;61.50;;;11.48;52.44;98788.41;5018229;28;20518;-79
2021/03/26 09:03:41;;;;;;;28.75;13.98;;;12.40;61.40;;;11.62;52.44;98789.88;4999692;28;20405;-79
2021/03/26 09:06:30;;;;;;;29.52;14.50;;;12.50;61.50;;;11.74;52.13;98787.25;5019294;28;20457;-79
2021/03/26 09:09:25;;;;;;;32.72;13.13;;;12.60;61.00;;;11.86;51.33;98790.81;5020459;28;20466;-78
2021/03/26 09:12:06;;;;;;;35.25;15.10;;;12.70;60.20;;;11.87;51.30;98784.47;5019991;28;20437;-79
2021/03/26 09:15:27;;;;;;;33.17;14.40;;;12.80;60.00;;;11.95;50.81;98789.47;5019906;28;20793;-79
2021/03/26 09:18:00;;;;;;;27.15;13.85;;;12.80;59.70;;;11.96;51.12;98780.44;5015059;28;20504;-80
2021/03/26 09:20:35;;;;;;;27.58;13.75;;;12.80;59.70;;;12.10;50.60;98781.91;5015747;28;20511;-79
2021/03/26 09:23:50;;;;;;;31.95;14.25;;;13.00;59.50;;;12.16;50.58;98773.03;5014896;28;20409;-78
2021/03/26 09:26:49;;;;;;;29.33;14.55;;;13.00;59.30;;;12.24;49.85;98778.03;5013457;28;20437;-78
2021/03/26 09:29:21;;;;;;;30.33;14.80;;;13.10;58.60;;;12.28;50.05;98773.06;5016155;28;20490;-78
2021/03/26 09:31:57;;;;;;;30.50;14.30;;;13.20;58.50;;;12.39;49.62;98773.09;5013280;28;20424;-78
2021/03/26 09:34:30;;;;;;;44.47;14.63;;;13.30;58.30;;;12.36;48.54;98773.53;5017326;28;20523;-78
2021/03/26 09:37:18;;;;;;;24.98;13.40;;;13.30;57.30;;;12.55;49.00;98768.16;5021454;28;20465;-79
2021/03/26 09:39:49;;;;;;;23.73;13.98;;;13.30;57.80;;;12.71;48.70;98764.78;5024738;28;20471;-79
2021/03/26 09:42:47;;;;;;;27.92;14.32;;;13.60;57.50;;;12.61;48.39;98762.72;5024309;28;20428;-79
2021/03/26 09:45:28;;;;;;;35.55;14.68;;;13.50;56.90;;;12.63;48.55;98765.94;5023282;28;20421;-78
2021/03/26 09:48:21;;;;;;;45.67;14.70;;;13.60;57.10;;;12.72;48.91;98747.81;5025741;28;20459;-78
2021/03/26 09:51:01;;;;;;;27.52;13.27;;;13.50;57.50;;;12.90;48.36;98741.56;5028860;28;20412;-78
2021/03/26 09:53:33;;;;;;;25.70;13.48;;;13.70;57.00;;;13.17;47.69;98737.38;5030725;28;20413;-79
2021/03/26 09:56:16;;;;;;;25.08;13.25;;;14.00;56.60;;;13.52;46.50;98734.66;5013911;28;20492;-79
2021/03/26 09:58:52;;;;;;;23.27;12.02;;;14.20;55.80;;;13.62;46.13;98729.50;5030251;28;20424;-79
2021/03/26 10:01:22;;;;;;;36.50;12.95;;;14.40;54.90;;;13.47;46.34;98724.72;5022192;28;20460;-79
2021/03/26 10:03:56;;;;;;;31.07;13.93;;;14.40;54.60;;;13.42;46.24;98727.28;5017895;28;20539;-78
2021/03/26 10:06:43;;;;;;;27.70;11.73;;;14.30;54.80;;;13.49;45.99;98724.47;5016796;28;20409;-78
2021/03/26 10:09:31;;;;;;;32.95;12.00;;;14.30;54.70;;;13.59;45.76;98721.22;5017226;28;20512;-77
2021/03/26 10:12:13;;;;;;;24.60;10.85;;;14.40;55.10;;;13.86;44.92;98719.56;5020509;28;20421;-79
2021/03/26 10:14:58;;;;;;;22.30;11.15;;;14.60;53.60;;;13.91;44.67;98711.66;5022531;28;20420;-79
2021/03/26 10:17:53;;;;;;;27.15;11.07;;;14.80;53.00;;;14.12;44.09;98705.66;5021706;28;20416;-80
2021/03/26 10:20:29;;;;;;;22.50;10.70;;;14.90;52.70;;;14.01;44.52;98706.53;5022476;28;20903;-80
2021/03/26 10:23:21;;;;;;;22.77;11.25;;;14.80;52.70;;;14.18;44.56;98703.88;5023892;28;20413;-78
2021/03/26 10:25:51;;;;;;;35.85;11.25;;;15.00;53.00;;;14.37;43.53;98699.91;5011810;28;20665;-79
2021/03/26 10:28:26;;;;;;;23.80;10.65;;;15.20;52.10;;;14.60;43.09;98704.28;5030345;28;20484;-78
2021/03/26 10:31:02;;;;;;;41.75;12.05;;;15.40;51.80;;;14.71;43.03;98693.53;5030047;28;20508;-78
2021/03/26 10:33:36;;;;;;;24.88;9.90;;;15.50;51.70;;;14.92;41.97;98688.47;5028596;28;20455;-78
2021/03/26 10:36:16;;;;;;;18.75;9.27;;;15.70;50.20;;;14.86;41.75;98684.13;5021824;28;20421;-78
2021/03/26 10:38:48;;;;;;;24.55;9.15;;;15.60;50.00;;;14.92;41.62;98681.28;5021886;28;20405;-78
2021/03/26 10:41:33;;;;;;;21.23;9.27;;;15.70;49.90;;;14.91;41.39;98673.53;5021351;28;20417;-78
2021/03/26 10:44:13;;;;;;;29.75;9.35;;;15.70;49.50;;;15.13;41.27;98676.19;5004708;28;20442;-78
2021/03/26 10:46:43;;;;;;;24.60;8.63;;;15.90;49.60;;;15.28;40.46;98665.72;5007332;28;20528;-77
2021/03/26 10:49:15;;;;;;;14.77;8.18;;;16.00;48.60;;;15.33;39.72;98655.91;5005201;28;20411;-78
2021/03/26 10:51:47;;;;;;;14.98;8.57;;;16.20;47.60;;;15.53;39.11;98655.34;5006817;28;20504;-78
2021/03/26 10:54:28;;;;;;;18.33;8.27;;;16.30;47.20;;;15.67;38.68;98653.88;5007155;28;20430;-78
2021/03/26 10:57:12;;;;;;;15.07;7.20;;;16.40;46.50;;;15.62;37.96;98645.84;5005022;28;20410;-78
2021/03/26 10:59:53;;;;;;;15.20;7.35;;;16.50;45.40;;;15.71;37.52;98638.97;5005551;28;20429;-78
2021/03/26 11:03:10;;;;;;;16.48;7.38;;;16.40;45.20;;;15.72;37.37;98637.09;4988571;28;20429;-78
2021/03/26 11:05:47;;;;;;;23.63;7.50;;;16.50;45.20;;;15.71;37.02;98646.19;4999688;28;20427;-78
2021/03/26 11:08:29;;;;;;;17.15;6.53;;;16.50;44.70;;;16.08;36.03;98640.88;4994216;28;20446;-75
2021/03/26 11:11:38;;;;;;;15.13;7.32;;;16.70;44.10;;;16.22;36.19;98629.50;4979164;28;20426;-80